Time;durP1;ratioP1;P1;durP2;ratioP2;P2;SDS_P1;SDS_P2;PMS_P1;PMS_P2;Temp;Humidity;BMP_temperature;BMP_pressure;BME280_temperature;BME280_humidity;BME280_pressure;Samples;Min_cycle;Max_cycle;Signal;HPM_P1;HPM_P2
2022/01/01 00:00:12;;;;;;;9.13;4.30;;;;;;;10.23;66.44;99992.34;3133443;28;20052;-69
2022/01/01 00:01:44;;;;;;;7.15;4.32;;;;;;;10.16;66.39;99990.88;3133554;28;20502;-69
2022/01/01 00:03:17;;;;;;;7.93;4.60;;;;;;;10.23;66.43;99991.47;3133674;28;20053;-69
2022/01/01 00:04:49;;;;;;;6.47;3.80;;;;;;;10.23;66.58;99991.47;3133557;28;20110;-69
2022/01/01 00:06:21;;;;;;;6.57;3.92;;;;;;;10.20;66.41;99987.25;3133520;28;20110;-69
2022/01/01 00:07:53;;;;;;;7.03;3.90;;;;;;;10.19;66.31;99975.13;3133454;28;20049;-69
2022/01/01 00:09:25;;;;;;;5.82;3.78;;;;;;;10.21;66.27;99982.91;3133613;28;20580;-69
2022/01/01 00:10:57;;;;;;;5.95;3.58;;;;;;;10.19;66.51;99974.28;3133617;28;20056;-69
2022/01/01 00:12:29;;;;;;;6.25;3.53;;;;;;;10.18;66.05;99983.03;3133168;28;20103;-69
2022/01/01 00:14:01;;;;;;;5.78;3.30;;;;;;;10.12;66.20;99976.31;3133482;28;20702;-69
2022/01/01 00:15:33;;;;;;;5.28;3.10;;;;;;;9.80;66.52;99920.34;3133508;28;20045;-69
2022/01/01 00:17:06;;;;;;;7.70;2.90;;;;;;;10.14;66.10;99977.06;3133311;28;20065;-69
2022/01/01 00:18:39;;;;;;;7.18;3.38;;;;;;;10.07;66.35;99970.44;3133206;28;20057;-69
2022/01/01 00:20:12;;;;;;;6.32;3.50;;;;;;;10.12;66.42;99973.69;3133009;28;20437;-69
2022/01/01 00:21:44;;;;;;;8.60;3.63;;;;;;;10.11;66.50;99974.59;3133280;28;20431;-69
2022/01/01 00:23:16;;;;;;;7.35;3.63;;;;;;;10.10;66.21;99967.69;3133381;28;20107;-69
2022/01/01 00:24:48;;;;;;;6.00;3.40;;;;;;;10.09;66.50;99963.41;3133163;28;20044;-69
2022/01/01 00:26:20;;;;;;;6.40;3.70;;;;;;;10.10;66.18;99972.06;3133438;28;20070;-69
2022/01/01 00:27:53;;;;;;;6.10;3.03;;;;;;;10.07;66.70;99964.38;3133176;28;20071;-69
2022/01/01 00:29:25;;;;;;;7.22;3.67;;;;;;;10.05;66.26;99967.03;3133141;28;20051;-69
2022/01/01 00:30:57;;;;;;;8.95;3.60;;;;;;;10.08;66.43;99973.88;3133392;28;20057;-69
2022/01/01 00:32:29;;;;;;;7.85;3.47;;;;;;;10.06;66.34;99968.75;3133226;28;20087;-69
2022/01/01 00:34:02;;;;;;;5.70;3.70;;;;;;;10.07;66.13;99967.81;3133411;28;20391;-69
2022/01/01 00:35:34;;;;;;;5.55;3.45;;;;;;;10.01;66.36;99960.28;3133110;28;20433;-69
2022/01/01 00:37:06;;;;;;;6.32;3.13;;;;;;;10.04;66.22;99965.34;3133229;28;20780;-69
2022/01/01 00:38:38;;;;;;;5.45;3.40;;;;;;;10.02;66.59;99967.16;3133375;28;20477;-69
2022/01/01 00:40:11;;;;;;;6.30;3.08;;;;;;;10.00;66.38;99963.78;3132708;28;20041;-69
2022/01/01 00:41:43;;;;;;;8.38;3.63;;;;;;;9.98;66.19;99966.44;3133161;28;20071;-69
2022/01/01 00:43:14;;;;;;;5.78;3.20;;;;;;;10.00;66.24;99969.00;3132990;28;20057;-69
2022/01/01 00:44:46;;;;;;;8.88;4.00;;;;;;;10.00;66.29;99963.78;3133038;28;20171;-69
2022/01/01 00:46:18;;;;;;;9.27;3.47;;;;;;;9.98;66.35;99956.03;3133182;28;20057;-69
2022/01/01 00:47:50;;;;;;;7.55;4.05;;;;;;;9.98;66.71;99965.59;3132890;28;20684;-69
2022/01/01 00:49:23;;;;;;;7.28;3.50;;;;;;;9.98;66.20;99956.03;3126425;28;20053;-69
2022/01/01 00:50:56;;;;;;;6.18;3.63;;;;;;;9.96;66.62;99951.78;3133052;28;20119;-69
2022/01/01 00:52:28;;;;;;;5.55;2.95;;;;;;;9.89;66.54;99950.34;3132979;28;20045;-69
2022/01/01 00:54:00;;;;;;;5.75;3.17;;;;;;;9.94;66.46;99958.84;3133168;28;20067;-69
2022/01/01 00:55:33;;;;;;;5.10;2.90;;;;;;;9.93;66.54;99957.13;3132817;28;20186;-69
2022/01/01 00:57:05;;;;;;;5.88;3.00;;;;;;;9.93;66.33;99952.75;3132971;28;20060;-69
2022/01/01 00:58:37;;;;;;;10.05;3.05;;;;;;;9.95;66.61;99948.34;3132941;28;20064;-69
2022/01/01 01:00:10;;;;;;;6.57;3.40;;;;;;;9.98;66.20;99950.00;3132774;28;20052;-69
2022/01/01 01:01:42;;;;;;;7.82;3.70;;;;;;;9.97;66.10;99949.16;3132945;28;20381;-69
2022/01/01 01:03:15;;;;;;;7.25;3.70;;;;;;;10.00;66.17;99949.03;3132786;28;20056;-69
2022/01/01 01:04:48;;;;;;;5.70;2.88;;;;;;;10.01;66.45;99944.66;3132788;28;20106;-69
2022/01/01 01:06:20;;;;;;;6.53;3.63;;;;;;;10.05;66.41;99948.81;3132865;28;20094;-69
2022/01/01 01:07:52;;;;;;;8.23;3.67;;;;;;;10.07;66.10;99948.78;3132768;28;20048;-69
2022/01/01 01:09:24;;;;;;;6.82;3.40;;;;;;;10.07;66.04;99941.81;3132907;28;20049;-69
2022/01/01 01:10:57;;;;;;;6.82;3.10;;;;;;;10.07;65.95;99938.38;3132813;28;20534;-69
2022/01/01 01:12:38;;;;;;;6.75;2.90;;;;;;;10.10;66.01;99939.06;3132765;28;20092;-69
2022/01/01 01:14:18;;;;;;;4.78;2.38;;;;;;;10.10;66.24;99933.88;3132853;28;20045;-69
2022/01/01 01:15:50;;;;;;;2.88;1.75;;;;;;;10.12;65.97;99932.06;3133006;28;20049;-69
2022/01/01 01:17:22;;;;;;;4.35;2.20;;;;;;;10.13;66.01;99925.94;3132469;28;20072;-69
2022/01/01 01:18:55;;;;;;;3.95;2.30;;;;;;;10.16;65.62;99931.00;3132588;28;20052;-69
2022/01/01 01:20:29;;;;;;;4.72;2.75;;;;;;;10.19;65.73;99920.47;3132818;28;20448;-69
2022/01/01 01:22:01;;;;;;;5.03;1.90;;;;;;;10.20;65.61;99916.97;3132645;28;20540;-69
2022/01/01 01:23:48;;;;;;;3.72;1.77;;;;;;;10.20;65.39;99910.91;3161875;27;20389;-69
2022/01/01 01:25:21;;;;;;;3.85;2.20;;;;;;;10.21;65.68;99903.06;3155253;28;20048;-69
2022/01/01 01:26:54;;;;;;;3.83;1.88;;;;;;;10.15;65.68;99882.50;3155518;28;20084;-69
2022/01/01 01:28:26;;;;;;;6.10;2.00;;;;;;;10.20;65.60;99896.16;3155704;28;20079;-69
2022/01/01 01:29:59;;;;;;;3.30;2.22;;;;;;;10.20;65.56;99890.97;3155167;28;20075;-69
2022/01/01 01:31:31;;;;;;;4.55;2.50;;;;;;;10.23;65.47;99888.22;3155211;28;20067;-69
2022/01/01 01:33:03;;;;;;;4.75;2.38;;;;;;;10.22;65.12;99885.69;3155341;28;20117;-69
2022/01/01 01:34:35;;;;;;;5.87;2.30;;;;;;;10.23;65.33;99898.63;3155634;28;20048;-69
2022/01/01 01:36:07;;;;;;;4.53;2.33;;;;;;;10.24;65.64;99895.13;3155315;28;20052;-69
2022/01/01 01:37:40;;;;;;;4.90;2.40;;;;;;;10.23;65.49;99898.63;3148640;28;20044;-69
2022/01/01 01:39:13;;;;;;;5.15;2.85;;;;;;;10.23;65.53;99896.03;3155262;28;20048;-69
2022/01/01 01:40:45;;;;;;;4.15;2.40;;;;;;;10.06;65.60;99863.78;3155291;28;20052;-69
2022/01/01 01:42:17;;;;;;;5.05;2.42;;;;;;;10.22;65.44;99885.69;3154559;28;20049;-69
2022/01/01 01:43:51;;;;;;;8.27;3.22;;;;;;;10.23;65.61;99898.63;3155167;28;20048;-69
2022/01/01 01:45:27;;;;;;;6.15;3.00;;;;;;;10.14;65.67;99883.38;3155043;28;20102;-69
2022/01/01 01:47:02;;;;;;;5.00;2.65;;;;;;;10.19;65.77;99886.66;3154976;28;20079;-69
2022/01/01 01:48:36;;;;;;;4.25;2.80;;;;;;;10.18;65.31;99878.91;3155041;28;20415;-69
2022/01/01 01:50:10;;;;;;;4.75;2.67;;;;;;;10.19;65.22;99881.44;3155420;28;20048;-69
2022/01/01 01:51:42;;;;;;;6.72;2.53;;;;;;;10.18;65.25;99884.97;3155137;28;20052;-69
2022/01/01 01:53:14;;;;;;;9.23;3.22;;;;;;;10.00;65.58;99857.97;3155080;28;20117;-69
2022/01/01 01:54:48;;;;;;;4.95;2.88;;;;;;;10.15;65.32;99879.88;3155025;28;20059;-70
2022/01/01 01:56:20;;;;;;;5.75;3.00;;;;;;;10.12;65.53;99894.78;3155044;28;20052;-69
2022/01/01 01:57:52;;;;;;;4.80;2.50;;;;;;;10.11;65.61;99887.88;3155025;28;20048;-69
2022/01/01 01:59:25;;;;;;;4.28;2.45;;;;;;;10.07;65.50;99888.94;3154998;28;20479;-69
2022/01/01 02:01:23;;;;;;;4.35;2.83;;;;;;;10.05;65.56;99891.56;3154730;28;20578;-69
2022/01/01 02:02:55;;;;;;;4.55;2.70;;;;;;;10.00;65.79;99897.00;3154748;28;20607;-69
2022/01/01 02:04:27;;;;;;;8.63;3.10;;;;;;;10.02;65.71;99902.13;3154857;28;20105;-69
2022/01/01 02:05:58;;;;;;;5.80;3.00;;;;;;;9.98;66.08;99887.56;3155301;28;20071;-69
2022/01/01 02:07:31;;;;;;;6.72;3.70;;;;;;;10.02;65.84;99891.69;3154752;28;20390;-69
2022/01/01 02:09:03;;;;;;;5.80;2.72;;;;;;;10.01;66.06;99884.81;3154999;28;20052;-69
2022/01/01 02:10:37;;;;;;;7.45;2.80;;;;;;;10.02;66.04;99889.09;3155006;28;20044;-70
2022/01/01 02:12:10;;;;;;;5.10;2.72;;;;;;;9.99;65.77;99887.47;3154958;28;20505;-69
2022/01/01 02:14:00;;;;;;;4.57;2.60;;;;;;;9.96;66.00;99886.75;3154824;28;20127;-69
2022/01/01 02:15:44;;;;;;;4.88;2.88;;;;;;;9.94;65.89;99881.63;3150209;28;20068;-69
2022/01/01 02:17:16;;;;;;;;;;;;;;;9.72;66.61;99878.19;3155304;28;20580;-69
2022/01/01 02:18:46;;;;;;;5.97;2.67;;;;;;;9.80;66.68;99876.97;3154862;28;19997;-69
2022/01/01 02:20:21;;;;;;;4.18;2.30;;;;;;;9.81;66.45;99864.81;3154968;28;20138;-69
2022/01/01 02:21:53;;;;;;;4.57;2.30;;;;;;;9.87;65.97;99869.78;3154613;28;20101;-69
2022/01/01 02:23:27;;;;;;;5.50;2.83;;;;;;;9.87;66.08;99871.53;3154522;28;20060;-69
2022/01/01 02:24:59;;;;;;;3.58;2.20;;;;;;;9.86;65.95;99878.50;3154853;28;20048;-70
2022/01/01 02:26:33;;;;;;;4.93;2.38;;;;;;;9.87;65.94;99876.72;3154590;28;20060;-69
2022/01/01 02:28:07;;;;;;;4.65;2.30;;;;;;;9.85;66.22;99875.94;3154785;28;20056;-69
2022/01/01 02:29:40;;;;;;;4.25;2.30;;;;;;;9.82;65.89;99881.28;3154404;28;20059;-70
2022/01/01 02:31:12;;;;;;;4.30;2.70;;;;;;;9.80;66.17;99876.16;3154727;28;20048;-70
2022/01/01 02:32:44;;;;;;;5.03;2.38;;;;;;;9.84;66.18;99885.50;3154889;28;20044;-70
2022/01/01 02:34:15;;;;;;;4.70;2.30;;;;;;;9.81;66.36;99883.03;3151092;28;20102;-69
2022/01/01 02:35:48;;;;;;;7.20;2.20;;;;;;;9.82;66.08;99886.47;3146263;28;20151;-69
2022/01/01 02:37:20;;;;;;;4.72;2.75;;;;;;;9.79;66.19;99885.72;3146107;28;20053;-69
2022/01/01 02:38:51;;;;;;;4.78;2.50;;;;;;;9.80;66.08;99882.19;3146274;28;20059;-69
2022/01/01 02:40:23;;;;;;;4.85;2.58;;;;;;;9.54;66.16;99848.59;3145743;28;20048;-69
2022/01/01 02:41:56;;;;;;;5.72;2.72;;;;;;;9.82;66.10;99878.66;3146031;28;20054;-69
2022/01/01 02:43:28;;;;;;;4.03;2.40;;;;;;;9.82;66.42;99881.28;3146037;28;20135;-69
2022/01/01 02:45:06;;;;;;;4.35;2.33;;;;;;;9.80;66.00;99879.59;3145896;28;20275;-69
2022/01/01 02:46:38;;;;;;;4.95;2.53;;;;;;;9.48;66.40;99828.88;3146041;28;20080;-69
2022/01/01 02:48:10;;;;;;;4.18;1.73;;;;;;;9.79;66.30;99880.50;3145967;28;20044;-69
2022/01/01 02:49:41;;;;;;;4.13;2.22;;;;;;;9.75;66.13;99875.47;3146183;28;20049;-69
2022/01/01 02:51:14;;;;;;;4.07;2.40;;;;;;;9.84;66.12;99885.50;3145803;28;20056;-69
2022/01/01 02:52:47;;;;;;;5.88;2.08;;;;;;;9.83;65.94;99881.22;3146046;28;20059;-69
2022/01/01 02:54:19;;;;;;;3.67;1.88;;;;;;;9.80;66.28;99884.78;3146135;28;20063;-69
2022/01/01 02:55:51;;;;;;;3.70;1.90;;;;;;;9.63;66.20;99856.00;3146197;28;20134;-69
2022/01/01 02:57:23;;;;;;;3.42;2.13;;;;;;;9.77;65.98;99887.50;3145799;28;20053;-69
2022/01/01 02:58:54;;;;;;;3.67;2.03;;;;;;;9.76;66.10;99884.97;3145952;28;20123;-69
2022/01/01 03:00:27;;;;;;;6.03;2.13;;;;;;;9.76;66.49;99893.63;3145785;28;20509;-69
2022/01/01 03:01:59;;;;;;;3.55;1.80;;;;;;;9.72;66.10;99886.84;3146309;28;20084;-70
2022/01/01 03:03:30;;;;;;;3.67;2.10;;;;;;;9.75;66.17;99893.69;3145759;28;20058;-69
2022/01/01 03:05:02;;;;;;;3.08;1.63;;;;;;;9.55;66.50;99855.47;3145653;28;20053;-69
2022/01/01 03:06:36;;;;;;;3.90;1.98;;;;;;;9.64;66.38;99880.25;3146027;28;20052;-69
2022/01/01 03:08:06;;;;;;;3.75;2.20;;;;;;;9.68;66.51;99881.84;3146022;28;20052;-69
2022/01/01 03:09:38;;;;;;;3.83;2.10;;;;;;;9.68;66.41;99887.03;3145761;28;20186;-69
2022/01/01 03:11:10;;;;;;;3.47;1.80;;;;;;;9.67;66.76;99885.34;3145982;28;20087;-69
2022/01/01 03:12:42;;;;;;;3.72;2.00;;;;;;;9.61;66.67;99875.19;3144355;28;20053;-70
2022/01/01 03:14:17;;;;;;;2.78;1.55;;;;;;;9.65;66.98;99880.22;3145870;28;20071;-69
2022/01/01 03:15:49;;;;;;;3.28;2.00;;;;;;;9.65;66.53;99884.56;3139372;28;20049;-69
2022/01/01 03:17:21;;;;;;;4.47;2.17;;;;;;;9.65;66.65;99888.00;3145670;28;20059;-69
2022/01/01 03:18:53;;;;;;;3.38;1.73;;;;;;;9.65;66.70;99893.22;3145512;28;20056;-69
2022/01/01 03:20:25;;;;;;;3.70;2.15;;;;;;;9.65;66.84;99882.81;3145432;28;20080;-69
2022/01/01 03:21:58;;;;;;;3.45;2.00;;;;;;;9.64;66.97;99886.28;3145798;28;20405;-69
2022/01/01 03:23:30;;;;;;;;;;;;;;;9.44;67.45;99886.28;3146005;28;20186;-69
2022/01/01 03:25:02;;;;;;;3.60;1.83;;;;;;;9.52;67.59;99879.00;3145681;28;20258;-69
2022/01/01 03:26:34;;;;;;;3.22;1.75;;;;;;;9.59;67.28;99892.63;3145517;28;20133;-69
2022/01/01 03:28:05;;;;;;;2.65;1.50;;;;;;;9.62;67.59;99885.53;3145526;28;20060;-69
2022/01/01 03:29:38;;;;;;;5.60;1.65;;;;;;;9.60;67.24;99887.34;3145576;28;20525;-69
2022/01/01 03:31:10;;;;;;;2.78;1.48;;;;;;;9.64;67.06;99878.50;3145817;28;20048;-69
2022/01/01 03:32:40;;;;;;;3.40;1.70;;;;;;;9.67;67.44;99886.22;3145361;28;20390;-69
2022/01/01 03:34:12;;;;;;;4.55;1.80;;;;;;;9.69;67.07;99881.78;3145448;28;20055;-70
2022/01/01 03:35:44;;;;;;;3.17;1.35;;;;;;;9.72;67.23;99883.41;3145665;28;20082;-69
2022/01/01 03:37:17;;;;;;;2.75;1.42;;;;;;;9.73;66.95;99878.16;3145433;28;20075;-69
2022/01/01 03:38:48;;;;;;;3.65;1.77;;;;;;;9.74;67.30;99882.44;3145494;28;20602;-69
2022/01/01 03:40:19;;;;;;;3.35;1.63;;;;;;;9.75;66.97;99884.13;3138847;28;20052;-69
2022/01/01 03:41:51;;;;;;;3.67;1.60;;;;;;;9.74;67.05;99879.00;3145575;28;20049;-69
2022/01/01 03:43:23;;;;;;;2.45;1.50;;;;;;;9.75;66.98;99873.72;3145308;28;20052;-69
2022/01/01 03:44:55;;;;;;;4.25;1.40;;;;;;;9.79;67.27;99872.69;3145173;28;20122;-69
2022/01/01 03:46:27;;;;;;;2.83;1.80;;;;;;;9.81;67.14;99870.03;3144268;28;20533;-69
2022/01/01 03:47:59;;;;;;;2.20;1.52;;;;;;;9.82;66.93;99879.53;3145162;28;20049;-69
2022/01/01 03:49:30;;;;;;;3.13;1.63;;;;;;;9.84;66.80;99874.25;3144704;28;20057;-69
2022/01/01 03:51:02;;;;;;;2.72;1.55;;;;;;;9.87;67.08;99874.13;3145609;28;20044;-69
2022/01/01 03:52:34;;;;;;;4.97;1.73;;;;;;;9.90;66.82;99869.66;3145264;28;20049;-69
2022/01/01 03:54:06;;;;;;;2.83;1.60;;;;;;;9.91;66.78;99867.88;3145683;28;20049;-69
2022/01/01 03:55:38;;;;;;;2.25;1.55;;;;;;;9.90;66.71;99864.44;3145131;28;20418;-69
2022/01/01 03:57:10;;;;;;;2.10;1.33;;;;;;;9.95;67.04;99856.47;3145247;28;20056;-69
2022/01/01 03:58:42;;;;;;;3.63;1.58;;;;;;;9.98;66.61;99853.72;3145440;28;20113;-69
2022/01/01 04:00:15;;;;;;;5.47;1.80;;;;;;;9.99;66.72;99853.66;3145398;28;20052;-69
2022/01/01 04:01:47;;;;;;;3.38;1.73;;;;;;;10.01;66.47;99856.19;3145185;28;20053;-69
2022/01/01 04:03:19;;;;;;;4.28;1.95;;;;;;;9.83;66.77;99821.41;3145103;28;20053;-69
2022/01/01 04:04:51;;;;;;;2.25;1.50;;;;;;;10.02;66.78;99850.06;3145261;28;20054;-70
2022/01/01 04:06:23;;;;;;;3.20;1.73;;;;;;;9.97;66.56;99834.69;3145365;28;20129;-70
2022/01/01 04:07:56;;;;;;;3.22;1.73;;;;;;;10.00;66.76;99836.31;3145133;28;20056;-69
2022/01/01 04:09:28;;;;;;;2.95;1.80;;;;;;;9.98;66.97;99832.91;3145212;28;20117;-69
2022/01/01 04:11:00;;;;;;;3.72;2.08;;;;;;;10.02;66.63;99831.88;3145185;28;20052;-69
2022/01/01 04:12:32;;;;;;;2.78;1.63;;;;;;;10.05;66.72;99839.53;3144824;28;20048;-69
2022/01/01 04:14:04;;;;;;;2.70;1.60;;;;;;;10.07;66.68;99829.94;3145087;28;20044;-70
2022/01/01 04:15:37;;;;;;;3.08;1.40;;;;;;;10.11;66.87;99825.44;3145071;28;20117;-69
2022/01/01 04:17:10;;;;;;;3.85;1.70;;;;;;;10.13;66.55;99826.22;3138438;28;20044;-69
2022/01/01 04:18:41;;;;;;;2.25;1.25;;;;;;;10.17;66.33;99817.34;3145109;28;20048;-69
2022/01/01 04:20:13;;;;;;;3.90;2.28;;;;;;;10.21;66.03;99814.56;3144840;28;20586;-69
2022/01/01 04:21:45;;;;;;;2.45;1.00;;;;;;;10.25;66.01;99823.91;3145051;28;20114;-70
2022/01/01 04:23:19;;;;;;;2.45;1.50;;;;;;;10.31;65.96;99804.63;3144958;28;20052;-69
2022/01/01 04:24:50;;;;;;;1.92;1.00;;;;;;;10.31;66.06;99812.44;3144794;28;20525;-69
2022/01/01 04:26:21;;;;;;;1.77;1.17;;;;;;;10.35;65.58;99810.53;3145046;28;20045;-69
2022/01/01 04:27:55;;;;;;;2.13;1.23;;;;;;;10.40;65.63;99811.19;3144870;28;20189;-69
2022/01/01 04:29:26;;;;;;;;;;;;;;;10.25;65.87;99810.91;3139361;28;20561;-70
2022/01/01 04:30:58;;;;;;;2.30;1.20;;;;;;;10.34;65.69;99812.28;3144703;28;19924;-69
2022/01/01 04:32:30;;;;;;;1.50;0.90;;;;;;;10.39;65.35;99804.28;3144753;28;20744;-69
2022/01/01 04:34:02;;;;;;;3.20;1.05;;;;;;;10.11;65.37;99755.16;3145079;28;20049;-70
2022/01/01 04:35:34;;;;;;;1.95;1.30;;;;;;;10.51;65.35;99808.97;3144729;28;20453;-69
2022/01/01 04:37:11;;;;;;;2.03;1.33;;;;;;;10.52;65.07;99809.78;3144765;28;20053;-69
2022/01/01 04:38:45;;;;;;;2.97;1.48;;;;;;;10.55;64.97;99814.88;3144830;28;20052;-69
2022/01/01 04:40:16;;;;;;;;;;;;;;;10.40;65.35;99811.19;3145406;28;20428;-69
2022/01/01 04:41:48;;;;;;;1.85;1.13;;;;;;;10.48;65.41;99809.09;3145059;28;19981;-70
2022/01/01 04:43:20;;;;;;;2.58;1.50;;;;;;;10.52;65.18;99805.44;3138129;28;20208;-69
2022/01/01 04:44:52;;;;;;;3.67;1.40;;;;;;;10.60;65.02;99807.69;3144527;28;20118;-70
2022/01/01 04:46:24;;;;;;;2.80;1.58;;;;;;;10.63;64.98;99810.16;3144462;28;20041;-70
2022/01/01 04:47:56;;;;;;;3.40;1.73;;;;;;;10.66;64.82;99812.63;3144652;28;20177;-69
2022/01/01 04:49:28;;;;;;;3.50;1.23;;;;;;;10.68;64.72;99809.03;3144747;28;20044;-70
2022/01/01 04:50:59;;;;;;;2.13;1.20;;;;;;;10.68;64.49;99800.38;3144473;28;20059;-69
2022/01/01 04:52:31;;;;;;;1.98;1.13;;;;;;;10.51;64.41;99767.28;3145021;28;20056;-71
2022/01/01 04:54:11;;;;;;;2.38;1.58;;;;;;;10.68;64.42;99795.19;3144807;28;20480;-70
2022/01/01 04:55:43;;;;;;;3.53;2.20;;;;;;;10.69;64.58;99807.28;3139144;28;20486;-70
2022/01/01 04:57:15;;;;;;;3.05;1.60;;;;;;;10.72;64.59;99808.91;3137969;28;20145;-69
2022/01/01 04:58:47;;;;;;;1.75;1.33;;;;;;;10.72;64.19;99801.09;3144658;28;20485;-69
2022/01/01 05:00:19;;;;;;;3.17;1.63;;;;;;;10.73;64.40;99797.56;3144714;28;20060;-69
2022/01/01 05:01:51;;;;;;;2.55;1.63;;;;;;;10.70;64.61;99799.38;3144603;28;20053;-69
2022/01/01 05:03:23;;;;;;;3.42;1.73;;;;;;;10.72;64.62;99806.31;3144677;28;20048;-69
2022/01/01 05:04:55;;;;;;;2.72;1.63;;;;;;;10.74;64.43;99809.66;3144606;28;20049;-70
2022/01/01 05:06:27;;;;;;;3.13;1.55;;;;;;;10.75;64.58;99806.16;3144636;28;20052;-69
2022/01/01 05:07:59;;;;;;;2.42;1.40;;;;;;;10.74;64.67;99802.72;3144839;28;20071;-69
2022/01/01 05:09:32;;;;;;;2.60;1.42;;;;;;;10.76;64.46;99797.41;3138326;28;20121;-69
2022/01/01 05:11:04;;;;;;;1.98;1.23;;;;;;;10.78;64.17;99799.03;3144631;28;20531;-69
2022/01/01 05:12:36;;;;;;;2.58;1.40;;;;;;;10.81;64.24;99798.91;3144422;28;20075;-69
2022/01/01 05:14:08;;;;;;;2.03;1.15;;;;;;;10.86;64.21;99801.31;3144495;28;20091;-69
2022/01/01 05:15:40;;;;;;;2.72;1.23;;;;;;;10.92;64.23;99803.63;3144552;28;20052;-69
2022/01/01 05:17:13;;;;;;;5.72;1.25;;;;;;;10.98;64.02;99799.88;3144798;28;20102;-69
2022/01/01 05:18:45;;;;;;;2.50;1.17;;;;;;;11.00;64.14;99793.66;3144389;28;20441;-69
2022/01/01 05:20:17;;;;;;;2.88;1.50;;;;;;;11.05;64.06;99796.91;3144614;28;20057;-69
2022/01/01 05:21:50;;;;;;;2.30;1.05;;;;;;;11.10;63.64;99799.31;3144734;28;20106;-69
2022/01/01 05:23:22;;;;;;;2.53;1.02;;;;;;;11.10;63.80;99787.13;3144435;28;20060;-69
2022/01/01 05:24:59;;;;;;;5.25;1.20;;;;;;;11.18;63.54;99799.78;3144407;28;20165;-69
2022/01/01 05:26:31;;;;;;;3.40;1.33;;;;;;;11.19;63.54;99796.25;3144491;28;20056;-70
2022/01/01 05:28:03;;;;;;;2.55;1.17;;;;;;;11.21;63.25;99801.38;3144641;28;20053;-69
2022/01/01 05:29:35;;;;;;;1.90;1.08;;;;;;;11.26;63.15;99802.03;3144494;28;20053;-69
2022/01/01 05:31:07;;;;;;;2.70;1.15;;;;;;;11.29;63.04;99794.88;3144519;28;20537;-69
2022/01/01 05:32:39;;;;;;;2.38;1.27;;;;;;;11.32;63.04;99805.16;3144611;28;20044;-70
2022/01/01 05:34:11;;;;;;;3.80;1.30;;;;;;;11.34;63.15;99805.09;3144529;28;20053;-69
2022/01/01 05:35:43;;;;;;;3.47;0.98;;;;;;;11.36;63.12;99809.34;3144639;28;20052;-69
2022/01/01 05:37:14;;;;;;;1.95;1.40;;;;;;;11.39;62.84;99806.59;3144487;28;20102;-70
2022/01/01 05:38:47;;;;;;;2.78;1.40;;;;;;;11.41;62.59;99806.50;3144273;28;20056;-70
2022/01/01 05:40:20;;;;;;;2.63;1.52;;;;;;;11.43;62.94;99801.22;3144476;28;20052;-69
2022/01/01 05:41:54;;;;;;;;;;;;;;;11.25;62.95;99806.41;3144928;28;20122;-69
2022/01/01 05:43:26;;;;;;;3.47;1.50;;;;;;;11.27;63.11;99798.47;3144534;28;20019;-69
2022/01/01 05:44:58;;;;;;;3.20;1.48;;;;;;;11.39;63.04;99808.34;3144262;28;20158;-69
2022/01/01 05:46:31;;;;;;;3.17;1.50;;;;;;;11.45;62.45;99812.44;3144399;28;20068;-69
2022/01/01 05:48:04;;;;;;;3.92;1.52;;;;;;;11.46;62.50;99804.50;3144498;28;20121;-69
2022/01/01 05:49:36;;;;;;;1.88;1.20;;;;;;;11.50;62.54;99807.81;3137596;28;20117;-69
2022/01/01 05:51:08;;;;;;;3.17;1.50;;;;;;;11.54;62.35;99815.41;3144542;28;20579;-69
2022/01/01 05:52:40;;;;;;;4.45;1.52;;;;;;;11.59;62.08;99820.41;3144614;28;20056;-70
2022/01/01 05:54:12;;;;;;;3.25;1.30;;;;;;;11.60;61.55;99817.72;3144223;28;20048;-69
2022/01/01 05:55:45;;;;;;;2.53;1.42;;;;;;;11.52;61.62;99801.59;3143934;28;20048;-69
2022/01/01 05:57:17;;;;;;;3.75;1.58;;;;;;;11.65;61.45;99821.84;3144633;28;20072;-69
2022/01/01 05:58:48;;;;;;;2.78;1.30;;;;;;;11.67;61.48;99809.59;3144315;28;20680;-70
2022/01/01 06:00:20;;;;;;;2.10;1.27;;;;;;;11.66;61.07;99806.16;3144433;28;20056;-69
2022/01/01 06:01:52;;;;;;;3.55;1.75;;;;;;;11.70;61.13;99814.66;3137429;28;20064;-69
2022/01/01 06:03:24;;;;;;;3.75;2.03;;;;;;;11.73;61.06;99819.72;3144504;28;20433;-70
2022/01/01 06:04:56;;;;;;;4.35;1.50;;;;;;;11.72;61.06;99818.88;3144190;28;20087;-69
2022/01/01 06:06:28;;;;;;;2.20;1.30;;;;;;;11.75;61.02;99823.94;3144227;28;20059;-69
2022/01/01 06:08:00;;;;;;;1.90;1.10;;;;;;;11.77;60.88;99813.41;3144215;28;20075;-70
2022/01/01 06:09:32;;;;;;;6.47;1.50;;;;;;;11.74;60.87;99819.66;3144997;28;20068;-69
2022/01/01 06:11:05;;;;;;;2.65;1.33;;;;;;;11.79;60.87;99819.41;3146718;28;20048;-69
2022/01/01 06:12:39;;;;;;;2.42;1.30;;;;;;;11.74;60.83;99821.41;3146805;28;20466;-70
2022/01/01 06:14:12;;;;;;;2.58;1.48;;;;;;;11.78;60.72;99820.34;3140222;28;20088;-69
2022/01/01 06:15:44;;;;;;;3.22;1.60;;;;;;;11.78;60.62;99822.97;3146542;28;20044;-69
2022/01/01 06:17:15;;;;;;;3.55;1.80;;;;;;;11.79;60.54;99822.03;3146391;28;20579;-69
2022/01/01 06:18:48;;;;;;;3.38;1.90;;;;;;;11.78;60.37;99821.19;3146528;28;20064;-70
2022/01/01 06:20:20;;;;;;;3.25;1.90;;;;;;;11.80;60.37;99828.91;3146676;28;20045;-70
2022/01/01 06:21:52;;;;;;;2.58;1.50;;;;;;;11.79;60.13;99833.31;3146639;28;20087;-69
2022/01/01 06:23:24;;;;;;;2.78;1.58;;;;;;;11.84;60.32;99849.59;3146371;28;20586;-69
2022/01/01 06:24:56;;;;;;;2.35;1.50;;;;;;;11.84;60.13;99839.16;3146228;28;20433;-69
2022/01/01 06:26:29;;;;;;;3.08;1.58;;;;;;;11.87;59.97;99855.63;3146684;28;20504;-70
2022/01/01 06:28:01;;;;;;;4.07;1.92;;;;;;;11.85;59.65;99853.06;3146433;28;20053;-69
2022/01/01 06:29:33;;;;;;;3.30;2.00;;;;;;;11.86;59.51;99854.78;3146305;28;20048;-69
2022/01/01 06:31:05;;;;;;;4.00;1.80;;;;;;;11.83;59.53;99855.72;3146435;28;20051;-69
2022/01/01 06:32:37;;;;;;;2.72;1.67;;;;;;;11.90;59.46;99868.50;3146659;28;20053;-69
2022/01/01 06:34:09;;;;;;;2.70;1.60;;;;;;;11.72;59.51;99837.16;3146242;28;20545;-69
2022/01/01 06:35:42;;;;;;;5.22;2.03;;;;;;;11.88;59.61;99858.13;3146412;28;20060;-69
2022/01/01 06:37:14;;;;;;;2.55;1.60;;;;;;;11.90;59.55;99861.50;3146068;28;20044;-69
2022/01/01 06:38:47;;;;;;;3.35;1.60;;;;;;;11.90;59.47;99861.50;3146499;28;20058;-69
2022/01/01 06:40:18;;;;;;;3.75;1.92;;;;;;;11.92;59.54;99864.91;3146407;28;20389;-70
2022/01/01 06:41:52;;;;;;;4.63;1.90;;;;;;;11.93;59.80;99860.53;3146265;28;20125;-70
2022/01/01 06:43:23;;;;;;;3.28;1.65;;;;;;;11.89;59.99;99862.44;3146211;28;20102;-69
2022/01/01 06:44:55;;;;;;;3.40;1.90;;;;;;;11.93;59.75;99853.53;3145906;28;20055;-69
2022/01/01 06:46:27;;;;;;;4.82;1.70;;;;;;;11.91;59.66;99852.75;3146159;28;20101;-70
2022/01/01 06:47:59;;;;;;;4.60;2.13;;;;;;;11.97;59.70;99849.00;3146021;28;20074;-69
2022/01/01 06:49:31;;;;;;;3.10;1.73;;;;;;;11.99;59.85;99847.16;3146084;28;20048;-69
2022/01/01 06:51:03;;;;;;;5.43;2.40;;;;;;;12.02;59.57;99850.47;3146215;28;20057;-70
2022/01/01 06:52:35;;;;;;;3.72;1.73;;;;;;;12.05;59.77;99847.69;3139472;28;20048;-70
2022/01/01 06:54:07;;;;;;;4.43;2.28;;;;;;;12.01;59.37;99847.94;3145688;28;20106;-70
2022/01/01 06:55:40;;;;;;;2.65;1.92;;;;;;;12.09;59.29;99850.16;3146158;28;20048;-70
2022/01/01 06:57:13;;;;;;;3.03;1.63;;;;;;;12.09;59.48;99845.75;3146088;28;20110;-70
2022/01/01 06:58:45;;;;;;;2.65;1.65;;;;;;;12.10;59.38;99851.81;3145989;28;20063;-70
2022/01/01 07:00:18;;;;;;;4.90;1.92;;;;;;;12.15;59.40;99857.66;3146005;28;20052;-70
2022/01/01 07:01:50;;;;;;;4.85;2.00;;;;;;;12.15;59.23;99857.66;3146013;28;20048;-70
2022/01/01 07:03:23;;;;;;;4.60;2.38;;;;;;;12.15;59.06;99852.44;3146236;28;20109;-70
2022/01/01 07:04:55;;;;;;;3.72;2.15;;;;;;;12.21;59.35;99855.59;3145762;28;20127;-70
2022/01/01 07:06:27;;;;;;;5.30;1.83;;;;;;;12.15;59.03;99852.44;3145920;28;20052;-70
2022/01/01 07:07:59;;;;;;;5.03;1.70;;;;;;;12.28;58.93;99866.56;3146005;28;20595;-70
2022/01/01 07:09:31;;;;;;;2.63;1.38;;;;;;;12.30;58.90;99859.50;3145898;28;20060;-70
2022/01/01 07:11:03;;;;;;;3.75;1.85;;;;;;;12.34;58.66;99865.44;3145972;28;20937;-70
2022/01/01 07:12:37;;;;;;;2.80;1.70;;;;;;;12.39;58.72;99860.78;3145777;28;20169;-70
2022/01/01 07:14:09;;;;;;;4.65;2.00;;;;;;;12.40;58.57;99863.34;3146009;28;20052;-70
2022/01/01 07:15:41;;;;;;;5.60;1.73;;;;;;;12.44;58.13;99875.31;3145735;28;20098;-70
2022/01/01 07:17:13;;;;;;;3.67;1.65;;;;;;;12.49;58.00;99881.13;3145596;28;20121;-70